Nuiqsut, Alaska
Current Conditions -  °F | °C
As of 3:53 PM on Wednesday 22 Oct 2014 (Local Time) from PAQT Reporting Station
Light Snow Light Snow  
Wind Chill: 10°   Ceiling: 1400
Heat Index: 25°   Visibility: 3mi
Dew Point: 22°   Wind: 22mph
Humidity: 88%   Direction: 60°ENE
Pressure: 29.94"   Gusts: NA
Location:  70.22°N, 150.98°W
Report Text: PAQT 222353Z AUTO 06019KT 3SM -SN BR OVC014 M04/M06 A2994 RMK PK WND 06028/2329 SLP137 P0000 60000 T10391056 11033 21039 51001 TSNO $ VIA AUTODIAL
Loading
Personal Weather Stations






























Interactive Weather Map
Tropical Storm Tracking
New forecast layout! Learn more

10-Day Weather Forecast

Advertisements
Track Severe Weather on mobile